Westwood Rainier — C6SI3 — position and weather

sailwx.info

Track history (hours):
 
Tides and Currents Weather Stations Pressure Air Temp Water Temp Dewpoint Dewpoint Depression Visibility Wind Speed Wind Dir Waves Ship Positions

Westwood Rainier

Last reported at 2016-Jun-26 18:00 UTC. Time now 2016-Jun-27 06:04 UTC.
Position N 54°24' W 165°54'.

Type: Cargo ship. MMSI: 311348993.

Wind from 320 at 18 knots

Waves 0.5 meters (2 feet), 16 second period

Barometer 1023.0 mb
Air temperature 10.0 ° C
Visibility: greater than 0.0 NM
Dewpoint 7.9 ° C
Water temperature 9.0 ° C

Date/timePositionNaut miles runAvg speedWind from/ knotsBaromVisibWave heightAir tempDewpointWater temp
2016-Jun-26 18:00N 54°24' W 165°54'32913.7 320 / 181023.0 0.0 0.510.0 7.9 9.0
2016-Jun-25 18:00N 53°30' W 156°42'29512.3 320 / 201010.5 5.4 1.010.010.010.0
2016-Jun-24 18:00N 52°18' W 148°48'23913.3 270 / 271017.7 5.4 1.510.0 7.9 9.0
2016-Jun-24 00:00N 50°54' W 142°48'   270 / 161024.2 0.5 2.011.0 9.010.0
2016-Jun-21 15:20N 48°07' W 125°49'1113.7
2016-Jun-21 14:31N 48°13' W 125°35'1413.9
2016-Jun-21 13:32N 48°20' W 125°17'1313.3
2016-Jun-21 12:33N 48°29' W 125°03'1414.2
2016-Jun-21 11:34N 48°30' W 124°41'1414.3
2016-Jun-21 10:33N 48°25' W 124°21'1413.9
2016-Jun-21 09:33N 48°19' W 124°02'1413.7
2016-Jun-21 08:33N 48°16' W 123°42'1111.4
2016-Jun-21 07:33N 48°21' W 123°26'2311.3
2016-Jun-21 05:33N 48°42' W 123°15'1211.7
2016-Jun-21 04:34N 48°51' W 123°04'1515.5
2016-Jun-21 03:34N 49°02' W 123°21'1414.3
2016-Jun-21 02:33N 49°16' W 123°20'9 9.4
2016-Jun-21 01:34N 49°18' W 123°06'0 0.4
2016-Jun-21 00:33N 49°17' W 123°06'0 0.0
2016-Jun-20 23:33N 49°17' W 123°06'0 0.0
2016-Jun-20 22:33N 49°17' W 123°06'0 0.0
2016-Jun-20 21:33N 49°17' W 123°06'0 0.0
2016-Jun-20 20:33N 49°17' W 123°06'0 0.0
2016-Jun-20 19:33N 49°17' W 123°06'0 0.0
2016-Jun-20 18:33N 49°17' W 123°06'0 0.0
2016-Jun-20 17:33N 49°17' W 123°06'0 0.0
2016-Jun-20 16:33N 49°17' W 123°06'0 0.0
2016-Jun-20 15:33N 49°17' W 123°06'0 0.0
2016-Jun-20 14:33N 49°17' W 123°06'0 0.0
2016-Jun-20 13:33N 49°17' W 123°06'0 0.0
2016-Jun-20 12:33N 49°17' W 123°06'2 2.2
2016-Jun-20 11:34N 49°19' W 123°08'1010.2
2016-Jun-20 10:33N 49°12' W 123°20'1413.6
2016-Jun-20 09:33N 48°59' W 123°13'1414.1
2016-Jun-20 08:34N 48°48' W 122°60'1313.3
2016-Jun-20 07:33N 48°38' W 123°14'1414.2
2016-Jun-20 06:33N 48°24' W 123°12'1212.0
2016-Jun-20 05:33N 48°16' W 123°26'9 8.8
2016-Jun-20 04:33N 48°10' W 123°17'1615.6
2016-Jun-20 03:31N 48°12' W 122°53'1414.4
2016-Jun-20 02:33N 48°03' W 122°38'1514.9
2016-Jun-20 01:33N 47°49' W 122°28'1514.6
2016-Jun-20 00:33N 47°35' W 122°27'1313.3
2016-Jun-19 23:33N 47°22' W 122°23'6 5.5
2016-Jun-19 22:30N 47°16' W 122°25'0 0.0
2016-Jun-19 17:24N 47°16' W 122°25'0 0.0
2016-Jun-19 16:30N 47°16' W 122°25'0 0.0
2016-Jun-19 15:33N 47°16' W 122°25'0 0.0
2016-Jun-19 14:33N 47°16' W 122°25'0 0.0
2016-Jun-19 13:33N 47°16' W 122°25'0 0.0
2016-Jun-19 12:33N 47°16' W 122°25'0 0.0
2016-Jun-19 11:33N 47°16' W 122°25'0 0.0
2016-Jun-19 10:33N 47°16' W 122°25'0 0.0
2016-Jun-19 09:33N 47°16' W 122°25'0 0.0
2016-Jun-19 07:12N 47°16' W 122°25'0 0.0
2016-Jun-19 06:06N 47°16' W 122°25'0 0.0
2016-Jun-19 05:33N 47°16' W 122°25'0 0.0
2016-Jun-19 04:33N 47°16' W 122°25'0 0.0
2016-Jun-19 03:21N 47°16' W 122°25'0 0.0
2016-Jun-19 02:06N 47°16' W 122°25'0 0.0
2016-Jun-19 01:30N 47°16' W 122°25'0 0.0
2016-Jun-19 00:33N 47°16' W 122°25'1 0.8
2016-Jun-18 23:33N 47°17' W 122°26'7 6.5
2016-Jun-18 22:33N 47°23' W 122°22'1515.0
2016-Jun-18 21:33N 47°37' W 122°28'1615.5
2016-Jun-18 20:33N 47°53' W 122°29'1615.4
2016-Jun-18 19:33N 48°06' W 122°40'1515.5
2016-Jun-18 18:33N 48°12' W 123°02'1414.2
2016-Jun-18 17:34N 48°10' W 123°23'1210.6
2016-Jun-18 16:26N 48°13' W 123°40'1113.0
2016-Jun-18 15:33N 48°14' W 123°57'1413.7
2016-Jun-18 14:33N 48°20' W 124°16'1313.5
2016-Jun-18 13:33N 48°26' W 124°34'1413.8
2016-Jun-18 12:33N 48°29' W 124°55'1413.3
2016-Jun-18 11:33N 48°18' W 125°07'1514.7
2016-Jun-18 10:30N 48°03' W 125°12'1714.9
2016-Jun-18 09:23N 47°46' W 125°16'1315.4
2016-Jun-18 08:33N 47°34' W 125°13'1515.2
2016-Jun-18 07:33N 47°19' W 125°10'1515.2
2016-Jun-18 06:34N 47°04' W 125°06'1514.7
2016-Jun-18 05:33N 46°49' W 125°02'1514.9
2016-Jun-18 04:34N 46°38' W 124°47'1514.7
2016-Jun-18 03:34N 46°28' W 124°32'1514.7
2016-Jun-18 02:33N 46°16' W 124°19'1111.0
2016-Jun-18 01:34N 46°15' W 124°03'1211.5
2016-Jun-18 00:34N 46°13' W 123°47'1413.5
2016-Jun-17 23:34N 46°16' W 123°28'1110.8
2016-Jun-17 22:34N 46°09' W 123°16'1110.9
2016-Jun-17 21:33N 46°08' W 122°60'1 0.5
2016-Jun-17 20:28N 46°08' W 122°59'0 0.0
2016-Jun-17 19:31N 46°08' W 122°59'0 0.0
2016-Jun-17 18:31N 46°08' W 122°59'0 0.0
2016-Jun-17 17:31N 46°08' W 122°59'0 0.0
2016-Jun-17 16:31N 46°08' W 122°59'0 0.0
2016-Jun-17 15:31N 46°08' W 122°59'0 0.0
2016-Jun-17 14:31N 46°08' W 122°59'0 0.0
2016-Jun-17 13:31N 46°08' W 122°59'0 0.0
2016-Jun-17 12:31N 46°08' W 122°59'0 0.0
2016-Jun-17 11:31N 46°08' W 122°59'0 0.0
2016-Jun-17 10:31N 46°08' W 122°59'0 0.0
2016-Jun-17 09:31N 46°08' W 122°59'0 0.0
2016-Jun-17 08:31N 46°08' W 122°59'0 0.0
2016-Jun-17 07:31N 46°08' W 122°59'0 0.0
2016-Jun-17 06:28N 46°08' W 122°59'0 0.0
2016-Jun-17 05:31N 46°08' W 122°59'0 0.0
2016-Jun-17 04:31N 46°08' W 122°59'0 0.0
2016-Jun-17 03:31N 46°08' W 122°59'0 0.0
2016-Jun-17 02:31N 46°08' W 122°59'0 0.0
2016-Jun-17 01:31N 46°08' W 122°59'0 0.0
2016-Jun-17 00:31N 46°08' W 122°59'0 0.0
2016-Jun-16 23:31N 46°08' W 122°59'0 0.0
2016-Jun-16 22:31N 46°08' W 122°59'0 0.0
2016-Jun-16 21:31N 46°08' W 122°59'0 0.0
2016-Jun-16 20:31N 46°08' W 122°59'0 0.0
2016-Jun-16 19:31N 46°08' W 122°59'0 0.0
2016-Jun-16 18:31N 46°08' W 122°59'  
Track history (hours):
 
Tides and Currents Weather Stations Pressure Air Temp Water Temp Dewpoint Dewpoint Depression Visibility Wind Speed Wind Dir Waves Ship Positions

Westwood Rainier

Last reported at 2016-Jun-26 18:00 UTC. Time now 2016-Jun-27 06:04 UTC.
Position N 54°24' W 165°54'.

Type: Cargo ship. MMSI: 311348993.

Wind from 320 at 18 knots

Waves 0.5 meters (2 feet), 16 second period

Barometer 1023.0 mb
Air temperature 10.0 ° C
Visibility: greater than 0.0 NM
Dewpoint 7.9 ° C
Water temperature 9.0 ° C

Date/timePositionNaut miles runAvg speedWind from/ knotsBaromVisibWave heightAir tempDewpointWater temp
2016-Jun-26 18:00N 54°24' W 165°54'32913.7 320 / 181023.0 0.0 0.510.0 7.9 9.0
2016-Jun-25 18:00N 53°30' W 156°42'29512.3 320 / 201010.5 5.4 1.010.010.010.0
2016-Jun-24 18:00N 52°18' W 148°48'23913.3 270 / 271017.7 5.4 1.510.0 7.9 9.0
2016-Jun-24 00:00N 50°54' W 142°48'   270 / 161024.2 0.5 2.011.0 9.010.0
2016-Jun-21 15:20N 48°07' W 125°49'1113.7
2016-Jun-21 14:31N 48°13' W 125°35'1413.9
2016-Jun-21 13:32N 48°20' W 125°17'1313.3
2016-Jun-21 12:33N 48°29' W 125°03'1414.2
2016-Jun-21 11:34N 48°30' W 124°41'1414.3
2016-Jun-21 10:33N 48°25' W 124°21'1413.9
2016-Jun-21 09:33N 48°19' W 124°02'1413.7
2016-Jun-21 08:33N 48°16' W 123°42'1111.4
2016-Jun-21 07:33N 48°21' W 123°26'2311.3
2016-Jun-21 05:33N 48°42' W 123°15'1211.7
2016-Jun-21 04:34N 48°51' W 123°04'1515.5
2016-Jun-21 03:34N 49°02' W 123°21'1414.3
2016-Jun-21 02:33N 49°16' W 123°20'9 9.4
2016-Jun-21 01:34N 49°18' W 123°06'0 0.4
2016-Jun-21 00:33N 49°17' W 123°06'0 0.0
2016-Jun-20 23:33N 49°17' W 123°06'0 0.0
2016-Jun-20 22:33N 49°17' W 123°06'0 0.0
2016-Jun-20 21:33N 49°17' W 123°06'0 0.0
2016-Jun-20 20:33N 49°17' W 123°06'0 0.0
2016-Jun-20 19:33N 49°17' W 123°06'0 0.0
2016-Jun-20 18:33N 49°17' W 123°06'0 0.0
2016-Jun-20 17:33N 49°17' W 123°06'0 0.0
2016-Jun-20 16:33N 49°17' W 123°06'0 0.0
2016-Jun-20 15:33N 49°17' W 123°06'0 0.0
2016-Jun-20 14:33N 49°17' W 123°06'0 0.0
2016-Jun-20 13:33N 49°17' W 123°06'0 0.0
2016-Jun-20 12:33N 49°17' W 123°06'2 2.2
2016-Jun-20 11:34N 49°19' W 123°08'1010.2
2016-Jun-20 10:33N 49°12' W 123°20'1413.6
2016-Jun-20 09:33N 48°59' W 123°13'1414.1
2016-Jun-20 08:34N 48°48' W 122°60'1313.3
2016-Jun-20 07:33N 48°38' W 123°14'1414.2
2016-Jun-20 06:33N 48°24' W 123°12'1212.0
2016-Jun-20 05:33N 48°16' W 123°26'9 8.8
2016-Jun-20 04:33N 48°10' W 123°17'1615.6
2016-Jun-20 03:31N 48°12' W 122°53'1414.4
2016-Jun-20 02:33N 48°03' W 122°38'1514.9
2016-Jun-20 01:33N 47°49' W 122°28'1514.6
2016-Jun-20 00:33N 47°35' W 122°27'1313.3
2016-Jun-19 23:33N 47°22' W 122°23'6 5.5
2016-Jun-19 22:30N 47°16' W 122°25'0 0.0
2016-Jun-19 17:24N 47°16' W 122°25'0 0.0
2016-Jun-19 16:30N 47°16' W 122°25'0 0.0
2016-Jun-19 15:33N 47°16' W 122°25'0 0.0
2016-Jun-19 14:33N 47°16' W 122°25'0 0.0
2016-Jun-19 13:33N 47°16' W 122°25'0 0.0
2016-Jun-19 12:33N 47°16' W 122°25'0 0.0
2016-Jun-19 11:33N 47°16' W 122°25'0 0.0
2016-Jun-19 10:33N 47°16' W 122°25'0 0.0
2016-Jun-19 09:33N 47°16' W 122°25'0 0.0
2016-Jun-19 07:12N 47°16' W 122°25'0 0.0
2016-Jun-19 06:06N 47°16' W 122°25'0 0.0
2016-Jun-19 05:33N 47°16' W 122°25'0 0.0
2016-Jun-19 04:33N 47°16' W 122°25'0 0.0
2016-Jun-19 03:21N 47°16' W 122°25'0 0.0
2016-Jun-19 02:06N 47°16' W 122°25'0 0.0
2016-Jun-19 01:30N 47°16' W 122°25'0 0.0
2016-Jun-19 00:33N 47°16' W 122°25'1 0.8
2016-Jun-18 23:33N 47°17' W 122°26'7 6.5
2016-Jun-18 22:33N 47°23' W 122°22'1515.0
2016-Jun-18 21:33N 47°37' W 122°28'1615.5
2016-Jun-18 20:33N 47°53' W 122°29'1615.4
2016-Jun-18 19:33N 48°06' W 122°40'1515.5
2016-Jun-18 18:33N 48°12' W 123°02'1414.2
2016-Jun-18 17:34N 48°10' W 123°23'1210.6
2016-Jun-18 16:26N 48°13' W 123°40'1113.0
2016-Jun-18 15:33N 48°14' W 123°57'1413.7
2016-Jun-18 14:33N 48°20' W 124°16'1313.5
2016-Jun-18 13:33N 48°26' W 124°34'1413.8
2016-Jun-18 12:33N 48°29' W 124°55'1413.3
2016-Jun-18 11:33N 48°18' W 125°07'1514.7
2016-Jun-18 10:30N 48°03' W 125°12'1714.9
2016-Jun-18 09:23N 47°46' W 125°16'1315.4
2016-Jun-18 08:33N 47°34' W 125°13'1515.2
2016-Jun-18 07:33N 47°19' W 125°10'1515.2
2016-Jun-18 06:34N 47°04' W 125°06'1514.7
2016-Jun-18 05:33N 46°49' W 125°02'1514.9
2016-Jun-18 04:34N 46°38' W 124°47'1514.7
2016-Jun-18 03:34N 46°28' W 124°32'1514.7
2016-Jun-18 02:33N 46°16' W 124°19'1111.0
2016-Jun-18 01:34N 46°15' W 124°03'1211.5
2016-Jun-18 00:34N 46°13' W 123°47'1413.5
2016-Jun-17 23:34N 46°16' W 123°28'1110.8
2016-Jun-17 22:34N 46°09' W 123°16'1110.9
2016-Jun-17 21:33N 46°08' W 122°60'1 0.5
2016-Jun-17 20:28N 46°08' W 122°59'0 0.0
2016-Jun-17 19:31N 46°08' W 122°59'0 0.0
2016-Jun-17 18:31N 46°08' W 122°59'0 0.0
2016-Jun-17 17:31N 46°08' W 122°59'0 0.0
2016-Jun-17 16:31N 46°08' W 122°59'0 0.0
2016-Jun-17 15:31N 46°08' W 122°59'0 0.0
2016-Jun-17 14:31N 46°08' W 122°59'0 0.0
2016-Jun-17 13:31N 46°08' W 122°59'0 0.0
2016-Jun-17 12:31N 46°08' W 122°59'0 0.0
2016-Jun-17 11:31N 46°08' W 122°59'0 0.0
2016-Jun-17 10:31N 46°08' W 122°59'0 0.0
2016-Jun-17 09:31N 46°08' W 122°59'0 0.0
2016-Jun-17 08:31N 46°08' W 122°59'0 0.0
2016-Jun-17 07:31N 46°08' W 122°59'0 0.0
2016-Jun-17 06:28N 46°08' W 122°59'0 0.0
2016-Jun-17 05:31N 46°08' W 122°59'0 0.0
2016-Jun-17 04:31N 46°08' W 122°59'0 0.0
2016-Jun-17 03:31N 46°08' W 122°59'0 0.0
2016-Jun-17 02:31N 46°08' W 122°59'0 0.0
2016-Jun-17 01:31N 46°08' W 122°59'0 0.0
2016-Jun-17 00:31N 46°08' W 122°59'0 0.0
2016-Jun-16 23:31N 46°08' W 122°59'0 0.0
2016-Jun-16 22:31N 46°08' W 122°59'0 0.0
2016-Jun-16 21:31N 46°08' W 122°59'0 0.0
2016-Jun-16 20:31N 46°08' W 122°59'0 0.0
2016-Jun-16 19:31N 46°08' W 122°59'0 0.0
2016-Jun-16 18:31N 46°08' W 122°59'  

Dump ship's entire track history